»·PEaware :: N512CP KPHX-KPRC

N512CP :: KPHX-KPRC

FLIGHT INFORMATION

Flight Status: Arrived
Operator: Privately registered:
United States
More flights under this callsign
Pilot: Elso C. (28218)
Aircraft: CIRRUS SR-22
(SR22)
More flights by this aircraft type
Origin: KPHX Phoenix Sky Harbor Intl
United States
Destination: KPRC Love
United States
More flights between these airports :: More routes between these airports
Route:
File this flight plan on PilotEdge
Remarks:
Altitude:
(Current/Filed)
10,500ft
Speed:
(Current/Filed)
150kts
Departed: 30-Jul-23 01:33 PM
Arrived: 30-Jul-23 02:08 PM
Distance/Time
Traveled:
76nm/0:35
Distance/Time
To Go:
Arrived

Flight Plot

Page will automatically refresh every two minutes.

Flight plan parsing failed; only flown route is shown


Map Options




Map Legend


Flown Route
Filed Route
Departure Airport
Arrival Airport
Navaid (VOR, NDB)
Fix

Horizontal Profiles

Position Reports

Time Latitude Longitude Heading Altitude Ground
Speed
30-Jul-23 13:21 33.443571 -112.028385 179 1109ft 0kts
30-Jul-23 13:22 33.443571 -112.028385 179 1109ft 0kts
30-Jul-23 13:23 33.443571 -112.028385 179 1109ft 0kts
30-Jul-23 13:24 33.443571 -112.028385 179 1109ft 0kts
30-Jul-23 13:25 33.443571 -112.028385 179 1109ft 0kts
30-Jul-23 13:26 33.443571 -112.028385 179 1109ft 0kts
30-Jul-23 13:26 33.443571 -112.028385 179 1109ft 0kts
30-Jul-23 13:28 33.443571 -112.028385 179 1109ft 0kts
30-Jul-23 13:29 33.443396 -112.028205 276 1109ft 10kts
30-Jul-23 13:30 33.441785 -112.029471 228 1109ft 0kts
30-Jul-23 13:30 33.441785 -112.029471 228 1109ft 0kts
30-Jul-23 13:31 33.440906 -112.029531 112 1109ft 7kts
30-Jul-23 13:32 33.440802 -112.023672 92 1177ft 82kts
30-Jul-23 13:34 33.439650 -111.985848 74 2666ft 99kts
30-Jul-23 13:34 33.453853 -111.970655 351 3813ft 91kts
30-Jul-23 13:35 33.479416 -111.979972 342 4970ft 101kts
30-Jul-23 13:36 33.508551 -111.990220 342 6018ft 116kts
30-Jul-23 13:37 33.540496 -112.001619 342 7059ft 121kts
30-Jul-23 13:39 33.577663 -112.014890 342 8308ft 118kts
30-Jul-23 13:39 33.604030 -112.024287 342 9140ft 118kts
30-Jul-23 13:40 33.635618 -112.035541 342 10055ft 121kts
30-Jul-23 13:41 33.670354 -112.048031 343 10516ft 149kts
30-Jul-23 13:42 33.713339 -112.063794 343 10504ft 168kts
30-Jul-23 13:43 33.759052 -112.080632 343 10501ft 173kts
30-Jul-23 13:44 33.805449 -112.097733 343 10501ft 174kts
30-Jul-23 13:45 33.851961 -112.114877 343 10501ft 174kts
30-Jul-23 13:46 33.898367 -112.131979 343 10501ft 174kts
30-Jul-23 13:47 33.944861 -112.149110 343 10501ft 174kts
30-Jul-23 13:48 33.991345 -112.166233 343 10500ft 174kts
30-Jul-23 13:49 34.037796 -112.183340 343 10500ft 174kts
30-Jul-23 13:50 34.084285 -112.200459 343 10501ft 174kts
30-Jul-23 13:51 34.130733 -112.217562 343 10500ft 173kts
30-Jul-23 13:52 34.176898 -112.234559 343 10500ft 172kts
30-Jul-23 13:53 34.222909 -112.251493 343 10501ft 172kts
30-Jul-23 13:54 34.269067 -112.268477 343 10501ft 172kts
30-Jul-23 13:55 34.316471 -112.272327 2 10501ft 172kts
30-Jul-23 13:56 34.365148 -112.270325 2 9953ft 171kts
30-Jul-23 13:57 34.412422 -112.268540 2 9146ft 169kts
30-Jul-23 13:58 34.459265 -112.270525 351 8340ft 168kts
30-Jul-23 13:59 34.504580 -112.279324 351 7710ft 160kts
30-Jul-23 14:00 34.544017 -112.301025 329 7601ft 157kts
30-Jul-23 14:01 34.581603 -112.328254 329 7601ft 157kts
30-Jul-23 14:02 34.615789 -112.355485 325 7596ft 138kts
30-Jul-23 14:03 34.645397 -112.382936 320 7599ft 131kts
30-Jul-23 14:04 34.676061 -112.374262 39 7017ft 128kts
30-Jul-23 14:05 34.688383 -112.385476 216 5725ft 115kts
30-Jul-23 14:06 34.664333 -112.409086 221 5012ft 101kts
30-Jul-23 14:07 34.656828 -112.415609 170 4973ft 0kts
30-Jul-23 14:08 34.656828 -112.415609 169 4973ft 0kts
30-Jul-23 14:09 34.655021 -112.417200 222 4987ft 11kts
30-Jul-23 14:10 34.650251 -112.422179 219 5011ft 26kts
30-Jul-23 14:11 34.646796 -112.424637 308 5023ft 0kts

Navigation Log

Ident Type
Flight plan parsing failed, navigation log unavailable